Fontana, WI (53125)

4:08 AM CDT on July 02, 2015 (GMT -0500)
Country Club Estates | | Change Station
CLOSE
Current Station
Personal Weather Station
Location: Fontana-on-Geneva Lake, WI
Elevation: 1056 ft
Nearby Weather Stations

Elev 1056 ft 42.54 °N, 88.57 °W | Updated 10 minutes ago

Clear
Clear
52.0 °F
Feels Like 52.0 °F
N
0.0
Wind Variable Wind from ESE

Today
High -- | Low -- °F
--% Chance of Precip.
Yesterday
High -- | Low -- °F
Precip. -- in
5:20 AM 8:35 PM
Full, 100% visible
Pressure 30.01 in
Visibility 1.0 miles
Clouds
Dew Point 48 °F
Humidity 87%
Rainfall 0.00 in
Snow Depth Not available.
UV Not available.
Pollen 4.10 out of 12
Air Quality Not available.
Flu Activity Not available.
METAR KJVL 020855Z AUTO 00000KT 1SM BR VV007 10/08 A3001 RMK AO2

More Conditions Fewer Conditions

Pressure 30.01 in
Visibility 1.0 miles
Clouds
Dew Point 48 °F
Humidity 87%
Rainfall 0.00 in
Snow Depth Not available.
UV Not available.
Pollen 4.10 out of 12
Air Quality Not available.
Flu Activity Not available.
METAR KJVL 020855Z AUTO 00000KT 1SM BR VV007 10/08 A3001 RMK AO2

More Conditions Fewer Conditions

10-Day Weather Forecast

×

Almanac

Astronomy

Jul. 02, 2015 Rise Set
Actual Time
Civil Twilight
Nautical Twilight
Astronomical Twilight
Moon
Length of Visible Light
Length of Day
Tomorrow will be .
, % of the Moon is Illuminated

Today's Extremes

State Highs State Lows

Community

WunderPhotos

Upload Photos

1,834,423 photos uploaded!

WunderBlogs® & News

Nearby

Air Quality

  Air Quality AQ Index Pollutant
Not available.

Snow Depth

Station Depth Elevation

Earthquake Activity

City Distance Mag. Time & Date
Minimum magnitude displayed is 2.5.

Coastal Water Temperatures

Place Temperature

Stations

Nearby Weather Stations

Station Location Temp. Windchill Dew Point Humidity Wind Precip. Elev Updated Type